Time;durP1;ratioP1;P1;durP2;ratioP2;P2;SDS_P1;SDS_P2;PMS_P1;PMS_P2;Temp;Humidity;BMP_temperature;BMP_pressure;BME280_temperature;BME280_humidity;BME280_pressure;Samples;Min_cycle;Max_cycle;Signal;HPM_P1;HPM_P2
2022/12/11 00:01:23;;;;;;;0.80;0.40;;;;;;;6.28;37.01;96647.34;5002341;28;20587;-60
2022/12/11 00:03:48;;;;;;;2.13;0.60;;;;;;;6.22;38.26;96663.50;5020069;28;20100;-62
2022/12/11 00:06:16;;;;;;;3.03;0.88;;;;;;;6.40;41.30;96646.03;4998514;28;20477;-60
2022/12/11 00:08:42;;;;;;;1.48;0.52;;;;;;;6.34;38.12;96655.25;4985099;28;20053;-62
2022/12/11 00:11:10;;;;;;;1.52;0.50;;;;;;;6.35;40.92;96661.19;5015318;28;20076;-61
2022/12/11 00:13:35;;;;;;;1.90;0.60;;;;;;;6.26;38.61;96647.53;5006543;28;20022;-63
2022/12/11 00:16:01;;;;;;;0.85;0.40;;;;;;;6.39;39.28;96628.13;4981351;28;20057;-66
2022/12/11 00:18:26;;;;;;;1.17;0.47;;;;;;;6.47;41.89;96638.44;5016437;28;20503;-62
2022/12/11 00:20:51;;;;;;;1.58;0.60;;;;;;;6.33;38.09;96634.75;5017339;28;20496;-63
2022/12/11 00:23:17;;;;;;;2.10;0.60;;;;;;;6.27;38.33;96638.81;4995867;28;20029;-64
2022/12/11 00:25:44;;;;;;;1.60;0.50;;;;;;;6.39;40.07;96639.28;5017767;28;20033;-61
2022/12/11 00:28:14;;;;;;;1.30;0.60;;;;;;;6.19;38.97;96636.25;4999790;28;20038;-61
2022/12/11 00:30:43;;;;;;;1.73;0.60;;;;;;;6.18;37.07;96642.38;4998055;28;20049;-62
2022/12/11 00:33:09;;;;;;;1.52;0.50;;;;;;;6.24;39.90;96634.00;5003933;28;20041;-64
2022/12/11 00:35:42;;;;;;;1.73;0.60;;;;;;;6.12;40.55;96628.38;5015320;28;20033;-63
2022/12/11 00:38:16;;;;;;;0.98;0.50;;;;;;;6.14;37.75;96633.38;5014795;28;20034;-61
2022/12/11 00:40:43;;;;;;;1.45;0.50;;;;;;;6.13;38.29;96647.22;4999590;28;20048;-60
2022/12/11 00:43:09;;;;;;;1.67;0.50;;;;;;;6.03;40.50;96602.75;4999355;28;20045;-61
2022/12/11 00:45:41;;;;;;;1.27;0.45;;;;;;;5.94;39.73;96584.66;5001302;28;20351;-60
2022/12/11 00:48:07;;;;;;;1.95;0.60;;;;;;;6.12;38.23;96649.00;4995417;28;21492;-61
2022/12/11 00:50:33;;;;;;;1.33;0.55;;;;;;;5.99;38.19;96640.97;4997979;28;20028;-61
2022/12/11 00:52:59;;;;;;;1.10;0.47;;;;;;;6.00;38.11;96652.09;4998191;28;20038;-63
2022/12/11 00:55:27;;;;;;;2.58;0.70;;;;;;;5.88;41.98;96636.13;5017535;28;20512;-61
2022/12/11 00:57:53;;;;;;;1.25;0.50;;;;;;;5.99;40.75;96665.94;4998166;28;20385;-60
2022/12/11 01:00:19;;;;;;;2.28;0.60;;;;;;;5.77;41.02;96614.06;5014232;28;20385;-61
2022/12/11 01:02:44;;;;;;;1.00;0.40;;;;;;;6.13;41.24;96654.97;4984198;28;20088;-61
2022/12/11 01:05:10;;;;;;;1.20;0.50;;;;;;;6.07;39.14;96609.19;5001991;28;20273;-63
2022/12/11 01:07:35;;;;;;;2.00;0.60;;;;;;;6.28;42.80;96668.81;5000220;28;20485;-63
2022/12/11 01:12:45;;;;;;;1.35;0.50;;;;;;;6.19;39.46;96656.91;4999669;28;20555;-61
2022/12/11 01:15:11;;;;;;;1.10;0.45;;;;;;;6.18;38.98;96664.81;5002394;28;20037;-62
2022/12/11 01:17:36;;;;;;;1.38;0.55;;;;;;;6.27;40.32;96666.41;5013186;28;20045;-62
2022/12/11 01:20:03;;;;;;;1.63;0.45;;;;;;;6.15;38.89;96661.59;5016416;28;20528;-62
2022/12/11 01:22:29;;;;;;;1.85;0.60;;;;;;;6.03;38.54;96644.03;5021300;28;20046;-61
2022/12/11 01:24:55;;;;;;;1.23;0.50;;;;;;;5.93;38.71;96657.88;4984802;28;20163;-59
2022/12/11 01:27:20;;;;;;;1.65;0.57;;;;;;;5.89;40.55;96648.84;5017184;28;20810;-60
2022/12/11 01:29:46;;;;;;;1.60;0.50;;;;;;;5.95;39.31;96655.97;5017074;28;20026;-61
2022/12/11 01:32:11;;;;;;;1.27;0.43;;;;;;;6.08;39.84;96668.38;5000682;28;20519;-59
2022/12/11 01:34:37;;;;;;;0.70;0.38;;;;;;;6.07;38.19;96660.78;5015958;28;20022;-60
2022/12/11 01:37:02;;;;;;;1.60;0.50;;;;;;;6.09;40.48;96669.97;4999494;28;20076;-64
2022/12/11 01:39:27;;;;;;;1.27;0.60;;;;;;;5.75;39.35;96641.78;4984638;28;20675;-61
2022/12/11 01:41:57;;;;;;;1.77;0.55;;;;;;;6.00;40.62;96675.31;5018420;28;20034;-61
2022/12/11 01:44:23;;;;;;;;;;;;;;;5.97;40.04;96682.41;5002145;28;20140;-60
2022/12/11 01:46:48;;;;;;;1.23;0.47;;;;;;;5.86;38.65;96656.91;5003149;28;19918;-60
2022/12/11 01:49:16;;;;;;;1.25;0.60;;;;;;;5.80;39.89;96680.75;5015117;28;20057;-60
2022/12/11 01:51:50;;;;;;;1.77;0.70;;;;;;;5.90;37.71;96670.31;4998384;28;20030;-60
2022/12/11 01:54:18;;;;;;;1.55;0.50;;;;;;;5.85;36.99;96677.72;4999075;28;20041;-61
2022/12/11 01:56:45;;;;;;;1.75;0.50;;;;;;;5.82;38.23;96678.81;5015440;28;20426;-60
2022/12/11 01:59:14;;;;;;;2.65;0.75;;;;;;;5.83;40.08;96695.13;5002558;28;20065;-61
2022/12/11 02:01:44;;;;;;;1.63;0.50;;;;;;;5.89;40.71;96684.16;5015352;28;20030;-61
2022/12/11 02:04:10;;;;;;;1.35;0.50;;;;;;;5.99;39.46;96726.09;4997016;28;20100;-61
2022/12/11 02:06:40;;;;;;;2.30;0.63;;;;;;;6.08;39.82;96694.19;4999344;28;20030;-60
2022/12/11 02:09:09;;;;;;;1.67;0.60;;;;;;;5.93;37.78;96709.47;5014078;28;20582;-62
2022/12/11 02:11:42;;;;;;;1.23;0.50;;;;;;;5.89;38.77;96697.06;5003139;28;20029;-60
2022/12/11 02:14:15;;;;;;;1.17;0.50;;;;;;;5.99;39.66;96718.38;5015552;28;20030;-60
2022/12/11 02:16:46;;;;;;;1.73;0.60;;;;;;;5.86;40.43;96716.25;4981663;28;20056;-61
2022/12/11 02:19:28;;;;;;;2.22;0.70;;;;;;;5.82;37.82;96709.78;5012721;28;20586;-60
2022/12/11 02:21:56;;;;;;;1.92;0.50;;;;;;;5.79;35.78;96720.44;5018829;28;20496;-61
2022/12/11 02:24:42;;;;;;;1.65;0.57;;;;;;;5.91;37.84;96724.31;5013822;28;20120;-60
2022/12/11 02:27:28;;;;;;;1.60;0.57;;;;;;;5.55;38.25;96677.41;4996818;28;20038;-60
2022/12/11 02:30:08;;;;;;;1.13;0.50;;;;;;;5.85;37.12;96713.81;5014335;28;20030;-60
2022/12/11 02:32:45;;;;;;;2.05;0.60;;;;;;;5.95;39.69;96720.47;4992633;28;20030;-60
2022/12/11 02:35:16;;;;;;;1.50;0.52;;;;;;;5.62;36.78;96691.22;5000706;28;20089;-61
2022/12/11 02:37:44;;;;;;;1.38;0.60;;;;;;;5.82;38.28;96725.25;4977392;28;20385;-62
2022/12/11 02:40:12;;;;;;;2.08;0.50;;;;;;;5.78;37.19;96718.81;5020518;28;20182;-60
2022/12/11 02:42:39;;;;;;;1.38;0.47;;;;;;;5.79;37.71;96715.28;5000001;28;20034;-61
2022/12/11 02:45:06;;;;;;;0.70;0.40;;;;;;;5.74;38.14;96731.22;4995221;28;20034;-59
2022/12/11 02:47:32;;;;;;;1.27;0.50;;;;;;;5.83;37.87;96733.81;5013787;28;20034;-60
2022/12/11 02:50:00;;;;;;;0.95;0.40;;;;;;;5.79;37.04;96751.38;5014381;28;20042;-63
2022/12/11 02:52:26;;;;;;;1.23;0.50;;;;;;;5.70;38.22;96736.88;4978046;28;20053;-61
2022/12/11 02:54:55;;;;;;;1.15;0.60;;;;;;;5.67;37.39;96743.13;4985855;28;20037;-62
2022/12/11 02:57:30;;;;;;;1.88;0.60;;;;;;;5.30;36.57;96694.59;5003586;28;20034;-61
2022/12/11 02:59:56;;;;;;;1.95;0.50;;;;;;;5.68;35.84;96733.66;4980789;28;21435;-60
2022/12/11 03:02:21;;;;;;;1.55;0.60;;;;;;;5.59;38.62;96728.47;4989666;28;20042;-60
2022/12/11 03:04:47;;;;;;;1.30;0.50;;;;;;;5.26;35.70;96693.31;4999751;28;21084;-60
2022/12/11 03:07:16;;;;;;;1.92;0.55;;;;;;;5.56;35.47;96741.66;5003234;28;20022;-60
2022/12/11 03:09:43;;;;;;;1.20;0.47;;;;;;;5.62;37.25;96744.59;5004402;28;20037;-60
2022/12/11 03:12:11;;;;;;;1.23;0.47;;;;;;;5.68;37.73;96729.28;5018860;28;20026;-60
2022/12/11 03:14:38;;;;;;;1.65;0.50;;;;;;;5.61;36.52;96730.09;4984830;28;20040;-61
2022/12/11 03:17:19;;;;;;;2.30;0.55;;;;;;;5.43;34.43;96725.88;4983725;28;20030;-61
2022/12/11 03:19:46;;;;;;;0.85;0.35;;;;;;;5.46;34.75;96735.03;5018005;28;20834;-61
2022/12/11 03:22:15;;;;;;;1.67;0.60;;;;;;;5.41;35.15;96735.53;4984367;28;20383;-60
2022/12/11 03:24:49;;;;;;;1.35;0.50;;;;;;;5.35;38.48;96736.16;5000462;28;20110;-63
2022/12/11 03:27:28;;;;;;;2.03;0.70;;;;;;;5.36;35.36;96751.44;5000606;28;20061;-60
2022/12/11 03:29:58;;;;;;;1.17;0.50;;;;;;;5.27;34.62;96741.28;4981762;28;20065;-59
2022/12/11 03:32:27;;;;;;;0.77;0.38;;;;;;;5.35;35.34;96757.59;5009677;28;20125;-61
2022/12/11 03:35:06;;;;;;;1.60;0.60;;;;;;;5.36;37.57;96746.28;5010554;28;20504;-62
2022/12/11 03:37:35;;;;;;;0.95;0.50;;;;;;;5.45;37.85;96756.63;4992097;28;20038;-60
2022/12/11 03:40:06;;;;;;;1.50;0.60;;;;;;;5.47;36.50;96757.28;5019106;28;20092;-60
2022/12/11 03:42:32;;;;;;;1.23;0.50;;;;;;;5.47;39.11;96734.09;5000619;28;20069;-62
2022/12/11 03:44:59;;;;;;;1.10;0.50;;;;;;;5.46;37.10;96755.66;5016694;28;20033;-61
2022/12/11 03:47:26;;;;;;;1.38;0.57;;;;;;;5.38;37.10;96744.41;4985834;28;20108;-60
2022/12/11 03:49:52;;;;;;;1.75;0.55;;;;;;;5.44;36.97;96742.13;5017094;28;20037;-63
2022/12/11 03:52:19;;;;;;;1.83;0.60;;;;;;;5.26;35.74;96755.16;5005944;28;20038;-59
2022/12/11 03:54:46;;;;;;;1.25;0.50;;;;;;;5.20;38.00;96751.41;5010483;28;20093;-61
2022/12/11 03:57:16;;;;;;;1.63;0.60;;;;;;;5.27;37.09;96747.25;5011996;28;20513;-60
2022/12/11 03:59:41;;;;;;;1.73;0.60;;;;;;;5.25;36.86;96766.41;5003205;28;20042;-60
2022/12/11 04:02:09;;;;;;;1.42;0.55;;;;;;;5.17;39.80;96754.31;4984849;28;20038;-61
2022/12/11 04:04:40;;;;;;;1.73;0.60;;;;;;;5.38;38.37;96769.34;5004757;28;20038;-62
2022/12/11 04:07:06;;;;;;;1.70;0.60;;;;;;;5.53;38.53;96754.06;5000159;28;20465;-61
2022/12/11 04:09:32;;;;;;;1.95;0.73;;;;;;;5.27;37.91;96725.81;5015660;28;20045;-61
2022/12/11 04:11:58;;;;;;;2.13;0.70;;;;;;;5.20;38.51;96751.41;5006749;28;20025;-60
2022/12/11 04:17:08;;;;;;;2.58;0.60;;;;;;;5.46;41.01;96760.81;5002403;28;20040;-60
2022/12/11 04:25:04;;;;;;;1.13;0.50;;;;;;;5.64;44.18;96786.47;5010725;28;20053;-61
2022/12/11 04:27:48;;;;;;;2.17;0.70;;;;;;;5.67;41.46;96776.66;4998927;28;20030;-61
2022/12/11 04:30:17;;;;;;;1.17;0.50;;;;;;;5.45;38.54;96726.50;5013539;28;20041;-62
2022/12/11 04:32:42;;;;;;;1.92;0.73;;;;;;;5.68;41.31;96774.91;5019282;28;20053;-60
2022/12/11 04:35:09;;;;;;;1.52;0.50;;;;;;;5.52;38.93;96776.47;5015053;28;20116;-60
2022/12/11 04:37:37;;;;;;;2.47;0.75;;;;;;;5.42;40.61;96778.41;5016706;28;20706;-60
2022/12/11 04:40:09;;;;;;;2.00;0.65;;;;;;;5.48;39.63;96754.56;5000520;28;20040;-60
2022/12/11 04:42:34;;;;;;;2.20;0.68;;;;;;;5.24;35.07;96768.19;5001567;28;20044;-60
2022/12/11 04:45:00;;;;;;;1.40;0.50;;;;;;;5.19;39.42;96735.16;4982261;28;20584;-61
2022/12/11 04:47:26;;;;;;;1.70;0.57;;;;;;;5.22;35.90;96772.69;4984131;28;20527;-62
2022/12/11 04:49:51;;;;;;;2.00;0.68;;;;;;;5.08;34.11;96771.50;5000492;28;20033;-62
2022/12/11 04:52:17;;;;;;;2.30;0.57;;;;;;;5.05;34.79;96778.72;5002320;28;20037;-60
2022/12/11 04:54:43;;;;;;;1.27;0.60;;;;;;;5.06;39.65;96773.44;5023968;28;20037;-60
2022/12/11 04:57:08;;;;;;;2.20;0.70;;;;;;;5.16;40.53;96750.91;5014930;28;20485;-62
2022/12/11 04:59:34;;;;;;;1.73;0.63;;;;;;;5.09;37.57;96777.47;5002010;28;20404;-61
2022/12/11 05:01:59;;;;;;;1.52;0.50;;;;;;;5.02;36.64;96761.84;4998606;28;20516;-60
2022/12/11 05:04:25;;;;;;;2.20;0.70;;;;;;;5.05;35.64;96764.06;5019107;28;20037;-62
2022/12/11 05:06:50;;;;;;;2.03;0.73;;;;;;;4.81;40.01;96731.31;4997674;28;20626;-62
2022/12/11 05:09:16;;;;;;;1.55;0.52;;;;;;;5.10;37.42;96767.00;5014134;28;20036;-60
2022/12/11 05:11:42;;;;;;;2.28;0.70;;;;;;;5.26;41.04;96762.88;5002314;28;20056;-62
2022/12/11 05:14:07;;;;;;;2.15;0.80;;;;;;;5.42;39.76;96770.66;5001547;28;20084;-60
2022/12/11 05:16:33;;;;;;;1.27;0.52;;;;;;;5.47;41.31;96768.41;4995980;28;20038;-61
2022/12/11 05:18:58;;;;;;;1.27;0.60;;;;;;;5.49;40.08;96760.50;5007528;28;20033;-64
2022/12/11 05:21:23;;;;;;;1.38;0.52;;;;;;;5.46;39.39;96764.22;5002467;28;20489;-60
2022/12/11 05:23:49;;;;;;;1.85;0.65;;;;;;;5.26;39.98;96757.72;4996769;28;20382;-62
2022/12/11 05:26:18;;;;;;;2.50;0.80;;;;;;;5.42;38.61;96764.69;5016212;28;20036;-60
2022/12/11 05:28:44;;;;;;;2.22;0.70;;;;;;;5.19;36.20;96768.66;4983868;28;20116;-62
2022/12/11 05:31:14;;;;;;;3.15;0.68;;;;;;;5.20;38.36;96784.91;4984210;28;20117;-60
2022/12/11 05:33:40;;;;;;;1.75;0.63;;;;;;;5.21;39.92;96781.38;4999114;28;20117;-61
2022/12/11 05:36:06;;;;;;;1.83;0.57;;;;;;;5.04;38.50;96751.34;5000572;28;20044;-61
2022/12/11 05:38:32;;;;;;;1.73;0.65;;;;;;;5.10;37.91;96741.25;4999050;28;20037;-62
2022/12/11 05:41:00;;;;;;;2.25;0.70;;;;;;;5.14;40.12;96721.91;5015353;28;20034;-61
2022/12/11 05:43:28;;;;;;;1.88;0.60;;;;;;;5.37;39.05;96785.78;5000659;28;20107;-61
2022/12/11 05:45:55;;;;;;;1.15;0.50;;;;;;;5.30;38.70;96795.91;4997515;28;20036;-62
2022/12/11 05:48:20;;;;;;;1.95;0.70;;;;;;;5.24;40.06;96775.09;4993458;28;20044;-62
2022/12/11 05:50:57;;;;;;;2.30;0.70;;;;;;;5.23;41.08;96788.97;4997494;28;20499;-62
2022/12/11 05:53:23;;;;;;;2.10;0.75;;;;;;;5.29;37.70;96783.16;4999910;28;20037;-60
2022/12/11 05:55:48;;;;;;;1.90;0.75;;;;;;;5.33;38.80;96787.03;4997008;28;20077;-62
2022/12/11 05:58:13;;;;;;;1.27;0.60;;;;;;;5.40;40.92;96785.44;4998563;28;20042;-60
2022/12/11 06:00:42;;;;;;;1.77;0.60;;;;;;;5.27;39.09;96809.09;4998222;28;20045;-60
2022/12/11 06:03:07;;;;;;;2.58;0.80;;;;;;;4.94;38.33;96739.41;4997986;28;20052;-60
2022/12/11 06:05:40;;;;;;;1.60;0.65;;;;;;;5.22;39.19;96788.16;5000356;28;20097;-60
2022/12/11 06:08:06;;;;;;;2.10;0.80;;;;;;;5.14;37.83;96796.63;5016121;28;20522;-61
2022/12/11 06:10:32;;;;;;;0.90;0.40;;;;;;;4.93;33.83;96798.81;4982003;28;20033;-61
2022/12/11 06:12:58;;;;;;;1.27;0.50;;;;;;;4.92;37.62;96792.03;4995716;28;20026;-60
2022/12/11 06:15:23;;;;;;;1.50;0.60;;;;;;;4.75;34.28;96799.69;5021556;28;20500;-62
2022/12/11 06:17:49;;;;;;;2.83;0.80;;;;;;;4.60;35.24;96802.00;5002053;28;20040;-62
2022/12/11 06:20:14;;;;;;;1.48;0.55;;;;;;;4.53;34.54;96816.44;5014915;28;20040;-60
2022/12/11 06:22:40;;;;;;;1.60;0.50;;;;;;;4.50;33.30;96790.19;5002821;28;20030;-60
2022/12/11 06:25:06;;;;;;;1.60;0.60;;;;;;;4.54;35.01;96794.88;5014078;28;20030;-62
2022/12/11 06:27:31;;;;;;;2.15;0.70;;;;;;;4.56;34.33;96794.72;4999452;28;20589;-63
2022/12/11 06:29:57;;;;;;;1.92;0.63;;;;;;;4.49;34.28;96799.69;4983915;28;20033;-64
2022/12/11 06:32:22;;;;;;;1.33;0.55;;;;;;;4.57;37.40;96797.16;5012113;28;20461;-62
2022/12/11 06:34:47;;;;;;;1.30;0.50;;;;;;;4.60;37.36;96796.06;5021996;28;20037;-64
2022/12/11 06:37:13;;;;;;;2.28;0.70;;;;;;;4.42;35.23;96791.75;5004183;28;20033;-63
2022/12/11 06:39:38;;;;;;;2.03;0.68;;;;;;;4.51;35.02;96809.81;5025052;28;20030;-60
2022/12/11 06:42:04;;;;;;;1.83;0.70;;;;;;;4.38;36.48;96818.75;4992185;28;20038;-62
2022/12/11 06:44:29;;;;;;;1.85;0.73;;;;;;;4.42;34.44;96817.47;5004733;28;20030;-62
2022/12/11 06:46:55;;;;;;;1.42;0.50;;;;;;;4.37;34.33;96832.56;5016890;28;20037;-61
2022/12/11 06:49:21;;;;;;;1.73;0.63;;;;;;;4.48;33.95;96828.94;4987042;28;20034;-61
2022/12/11 06:51:46;;;;;;;1.55;0.60;;;;;;;4.57;38.89;96822.91;5003233;28;20022;-61
2022/12/11 06:54:12;;;;;;;1.67;0.57;;;;;;;4.73;37.66;96818.81;5005526;28;20038;-61
2022/12/11 06:56:38;;;;;;;1.58;0.50;;;;;;;4.74;37.08;96841.03;4989287;28;20040;-61
2022/12/11 06:59:03;;;;;;;2.05;0.63;;;;;;;4.87;39.71;96822.59;4982358;28;20511;-60
2022/12/11 07:01:29;;;;;;;1.77;0.63;;;;;;;4.90;38.67;96806.84;4983049;28;20045;-62
2022/12/11 07:03:57;;;;;;;2.30;0.60;;;;;;;4.81;39.41;96824.00;5002590;28;20057;-60
2022/12/11 07:06:23;;;;;;;1.35;0.52;;;;;;;4.31;37.22;96737.13;4990153;28;20067;-60
2022/12/11 07:08:49;;;;;;;3.22;0.88;;;;;;;4.93;40.40;96832.31;4983159;28;20091;-60
2022/12/11 07:11:16;;;;;;;1.90;0.70;;;;;;;4.76;37.68;96810.78;4996201;28;20109;-61
2022/12/11 07:13:42;;;;;;;3.10;0.73;;;;;;;4.51;35.18;96840.69;5002008;28;20030;-59
2022/12/11 07:16:10;;;;;;;1.83;0.60;;;;;;;4.49;39.62;96830.56;5013732;28;20042;-60
2022/12/11 07:18:41;;;;;;;2.13;0.80;;;;;;;4.61;37.49;96846.56;4991837;28;20036;-61
2022/12/11 07:21:07;;;;;;;1.70;0.70;;;;;;;4.68;36.73;96845.00;5022299;28;20038;-61
2022/12/11 07:23:33;;;;;;;2.22;0.68;;;;;;;4.79;38.16;96849.09;5001917;28;20548;-60
2022/12/11 07:26:03;;;;;;;1.40;0.60;;;;;;;4.90;39.34;96863.50;5022985;28;20534;-60
2022/12/11 07:28:29;;;;;;;;;;;;;;;4.94;38.21;96860.47;5006987;28;20036;-60
2022/12/11 07:30:54;;;;;;;2.50;0.80;;;;;;;4.88;36.49;96876.53;5013834;28;19921;-61
2022/12/11 07:33:20;;;;;;;2.45;0.77;;;;;;;4.68;33.01;96868.19;5023587;28;20127;-62
2022/12/11 07:35:45;;;;;;;1.40;0.50;;;;;;;4.57;37.60;96873.56;4991268;28;21430;-61
2022/12/11 07:38:11;;;;;;;2.90;0.93;;;;;;;4.69;38.36;96854.38;5022708;28;20591;-61
2022/12/11 07:40:37;;;;;;;2.60;0.80;;;;;;;4.66;36.72;96846.94;5010464;28;20389;-61
2022/12/11 07:43:02;;;;;;;2.67;0.82;;;;;;;4.56;33.84;96874.53;5005155;28;20081;-61
2022/12/11 07:45:28;;;;;;;1.58;0.60;;;;;;;4.27;33.08;96874.75;5016141;28;20434;-60
2022/12/11 07:47:54;;;;;;;1.38;0.55;;;;;;;4.21;33.42;96873.59;5015352;28;20491;-59
2022/12/11 07:50:20;;;;;;;2.20;0.75;;;;;;;4.19;36.10;96873.72;5007912;28;20480;-64
2022/12/11 07:52:46;;;;;;;2.15;0.90;;;;;;;4.37;34.98;96872.94;4988526;28;20124;-61
2022/12/11 07:55:11;;;;;;;1.10;0.50;;;;;;;4.28;32.87;96878.97;4980074;28;20168;-60
2022/12/11 07:57:37;;;;;;;1.88;0.70;;;;;;;4.23;33.93;96867.38;5004613;28;20033;-62
2022/12/11 08:00:04;;;;;;;2.28;0.70;;;;;;;4.23;33.50;96881.97;5023770;28;20480;-60
2022/12/11 08:02:31;;;;;;;2.28;0.60;;;;;;;4.36;36.50;96882.44;5009881;28;20037;-61
2022/12/11 08:04:56;;;;;;;1.88;0.68;;;;;;;4.61;38.14;96885.19;5004695;28;20065;-60
2022/12/11 08:07:22;;;;;;;1.70;0.60;;;;;;;4.70;38.52;96886.84;4999525;28;20068;-61
2022/12/11 08:09:47;;;;;;;1.63;0.60;;;;;;;4.75;40.04;96886.44;5004661;28;20041;-62
2022/12/11 08:12:13;;;;;;;2.40;0.80;;;;;;;4.80;38.47;96900.47;4996689;28;20040;-61
2022/12/11 08:14:38;;;;;;;3.13;0.80;;;;;;;4.74;39.11;96890.75;4987977;28;20022;-61
2022/12/11 08:17:04;;;;;;;2.00;0.73;;;;;;;4.65;38.64;96883.13;4999506;28;20037;-60
2022/12/11 08:19:29;;;;;;;3.70;1.00;;;;;;;4.48;36.04;96895.88;4998967;28;20650;-63
2022/12/11 08:21:55;;;;;;;2.00;0.60;;;;;;;4.28;32.40;96907.28;4997416;28;20033;-61
2022/12/11 08:24:20;;;;;;;3.58;0.90;;;;;;;4.15;33.39;96902.50;5000940;28;20041;-64
2022/12/11 08:26:47;;;;;;;2.13;0.73;;;;;;;4.11;33.05;96909.69;5019015;28;20025;-60
2022/12/11 08:29:12;;;;;;;2.10;0.82;;;;;;;4.02;32.46;96906.22;5001719;28;20730;-62
2022/12/11 08:31:39;;;;;;;3.13;0.80;;;;;;;4.37;38.63;96916.69;5020359;28;20026;-63
2022/12/11 08:34:05;;;;;;;1.95;0.70;;;;;;;4.34;36.51;96919.53;4999257;28;20675;-62
2022/12/11 08:36:31;;;;;;;3.05;1.00;;;;;;;4.56;35.58;96924.25;5016283;28;20034;-64
2022/12/11 08:38:57;;;;;;;1.98;0.70;;;;;;;4.58;35.74;96917.19;5016765;28;20031;-60
2022/12/11 08:41:27;;;;;;;2.90;1.00;;;;;;;4.00;32.96;96892.69;4996456;28;20041;-61
2022/12/11 08:43:54;;;;;;;2.42;0.80;;;;;;;4.51;36.63;96938.50;5014945;28;20353;-60
2022/12/11 08:46:26;;;;;;;2.58;0.70;;;;;;;4.45;36.04;96914.16;4985314;28;20037;-62
2022/12/11 08:48:52;;;;;;;2.85;0.93;;;;;;;4.56;34.24;96950.00;5015162;28;20101;-61
2022/12/11 08:51:21;;;;;;;2.33;0.80;;;;;;;4.37;33.81;96961.22;5005681;28;20534;-60
2022/12/11 08:53:47;;;;;;;2.20;0.75;;;;;;;4.49;36.26;96928.38;4983207;28;20037;-59
2022/12/11 08:56:18;;;;;;;2.75;1.00;;;;;;;4.56;36.25;96938.88;4993860;28;20034;-61
2022/12/11 08:58:44;;;;;;;3.40;0.93;;;;;;;4.73;35.06;96947.56;4996603;28;20444;-60
2022/12/11 09:01:12;;;;;;;2.90;1.17;;;;;;;4.46;31.83;96946.69;5000882;28;20034;-61
2022/12/11 09:03:38;;;;;;;2.15;0.80;;;;;;;4.44;35.11;96943.44;4982746;28;20117;-61
2022/12/11 09:06:12;;;;;;;3.00;1.02;;;;;;;4.60;33.84;96946.16;4981502;28;20057;-60
2022/12/11 09:08:39;;;;;;;3.10;1.00;;;;;;;4.60;32.61;96951.31;5011042;28;20036;-60
2022/12/11 09:11:09;;;;;;;3.95;1.20;;;;;;;4.34;33.70;96929.81;5017075;28;20475;-60
2022/12/11 09:13:35;;;;;;;3.13;1.00;;;;;;;4.52;33.49;96966.69;5003241;28;20062;-59
2022/12/11 09:16:08;;;;;;;4.20;1.25;;;;;;;4.20;29.68;96911.38;5015490;28;20034;-60
2022/12/11 09:18:35;;;;;;;4.93;1.67;;;;;;;4.50;29.95;96968.59;4981412;28;20030;-58
2022/12/11 09:21:02;;;;;;;3.47;1.00;;;;;;;4.48;30.87;96957.63;4981203;28;20709;-63
2022/12/11 09:23:28;;;;;;;3.47;1.08;;;;;;;4.48;33.28;96961.97;5006084;28;20079;-61
2022/12/11 09:25:54;;;;;;;8.98;2.78;;;;;;;4.44;32.77;96946.03;4999262;28;20092;-60
2022/12/11 09:28:19;;;;;;;7.65;2.38;;;;;;;4.42;31.05;96948.75;5021294;28;21705;-60
2022/12/11 09:30:45;;;;;;;8.43;2.08;;;;;;;4.45;34.03;96957.13;5012111;28;20474;-60
2022/12/11 09:33:10;;;;;;;4.88;1.42;;;;;;;4.52;36.30;96912.63;4996823;28;20112;-62
2022/12/11 09:35:36;;;;;;;3.72;1.30;;;;;;;4.77;33.98;96948.88;4996821;28;20040;-60
2022/12/11 09:38:02;;;;;;;5.00;1.92;;;;;;;4.77;34.35;96948.88;4999882;28;20034;-61
2022/12/11 09:40:28;;;;;;;3.92;1.30;;;;;;;4.53;33.17;96891.09;4995069;28;20049;-60
2022/12/11 09:42:57;;;;;;;4.38;1.65;;;;;;;4.79;33.01;96960.63;4996851;28;20482;-60
2022/12/11 09:45:23;;;;;;;2.83;0.98;;;;;;;4.89;35.48;96946.88;4999115;28;20029;-63
2022/12/11 09:47:54;;;;;;;2.97;1.00;;;;;;;5.00;36.12;96947.44;4997973;28;20347;-61
2022/12/11 09:50:32;;;;;;;4.10;1.30;;;;;;;4.95;36.90;96941.94;4980533;28;20040;-60
2022/12/11 09:53:12;;;;;;;2.65;0.93;;;;;;;4.96;30.24;96947.88;4997759;28;20037;-60
2022/12/11 09:55:59;;;;;;;2.78;1.00;;;;;;;5.07;36.31;96946.84;4978484;28;20026;-60
2022/12/11 09:58:49;;;;;;;2.20;0.75;;;;;;;5.19;32.84;96946.44;5014322;28;20034;-60
2022/12/11 10:01:21;;;;;;;;;;;;;;;5.32;35.35;96942.66;4991116;28;20038;-61
2022/12/11 10:04:00;;;;;;;2.08;0.80;;;;;;;5.49;34.78;96949.50;5013220;28;19917;-59
2022/12/11 10:06:34;;;;;;;2.38;0.70;;;;;;;5.57;35.59;96956.50;4998987;28;20150;-61
2022/12/11 10:09:25;;;;;;;2.20;0.70;;;;;;;5.62;34.65;96949.06;4993318;28;20136;-61
2022/12/11 10:12:14;;;;;;;2.65;0.80;;;;;;;5.70;34.52;96940.59;5014683;28;20680;-61
2022/12/11 10:15:09;;;;;;;1.70;0.60;;;;;;;5.81;33.33;96942.88;5011786;28;20052;-60
2022/12/11 10:17:36;;;;;;;2.58;0.82;;;;;;;5.59;33.70;96942.47;5002759;28;20066;-60
2022/12/11 10:20:38;;;;;;;1.63;0.60;;;;;;;5.68;36.21;96935.59;5003139;28;20041;-59
2022/12/11 10:23:06;;;;;;;3.08;1.00;;;;;;;5.61;33.64;96928.63;5000658;28;20048;-59
2022/12/11 10:25:43;;;;;;;2.33;0.82;;;;;;;5.80;34.86;96933.53;5003402;28;20053;-58
2022/12/11 10:28:18;;;;;;;2.22;0.77;;;;;;;5.85;32.48;96933.88;4999592;28;20033;-60
2022/12/11 10:30:55;;;;;;;1.38;0.60;;;;;;;5.91;32.58;96927.28;5014562;28;20215;-60
2022/12/11 10:33:42;;;;;;;3.20;0.90;;;;;;;6.00;33.83;96925.56;5001822;28;20265;-62
2022/12/11 10:36:09;;;;;;;2.92;0.90;;;;;;;5.74;30.33;96929.00;5001162;28;20045;-58
2022/12/11 10:38:41;;;;;;;2.13;0.80;;;;;;;5.85;30.98;96931.28;5011251;28;20033;-59
2022/12/11 10:41:16;;;;;;;2.83;1.00;;;;;;;5.86;33.43;96927.75;4979943;28;20041;-63
2022/12/11 10:43:47;;;;;;;2.45;0.75;;;;;;;5.87;35.91;96920.81;4998000;28;20053;-60
2022/12/11 10:46:25;;;;;;;2.63;0.70;;;;;;;6.05;31.72;96918.16;4985840;28;20037;-61
2022/12/11 10:48:55;;;;;;;1.50;0.60;;;;;;;6.18;31.52;96925.47;4977904;28;20022;-64
2022/12/11 10:51:35;;;;;;;1.95;0.60;;;;;;;6.20;32.18;96936.44;4983836;28;20116;-61
2022/12/11 10:54:37;;;;;;;3.13;1.00;;;;;;;6.12;31.03;96927.69;4987057;28;20069;-61
2022/12/11 10:57:03;;;;;;;2.55;0.70;;;;;;;5.76;31.68;96873.72;4999169;28;20796;-64
2022/12/11 10:59:29;;;;;;;3.00;1.00;;;;;;;6.17;33.37;96927.25;5001013;28;20037;-60
2022/12/11 11:01:54;;;;;;;2.50;0.70;;;;;;;6.19;30.58;96933.03;5005354;28;20516;-60
2022/12/11 11:04:31;;;;;;;2.20;0.77;;;;;;;6.02;31.23;96884.94;5015559;28;20041;-62
2022/12/11 11:07:11;;;;;;;2.33;0.98;;;;;;;6.25;32.11;96926.44;4970118;28;20783;-60
2022/12/11 11:09:38;;;;;;;2.45;0.80;;;;;;;6.22;31.69;96913.84;5022377;28;20761;-62
2022/12/11 11:12:04;;;;;;;1.98;0.75;;;;;;;6.23;32.15;96923.22;5002305;28;20498;-63
2022/12/11 11:14:30;;;;;;;2.28;0.80;;;;;;;6.36;34.18;96928.72;4968599;28;20962;-63
2022/12/11 11:16:56;;;;;;;2.13;0.75;;;;;;;6.35;31.88;96921.91;4993825;28;20034;-62
2022/12/11 11:19:24;;;;;;;2.05;0.60;;;;;;;6.16;33.08;96876.56;4991660;28;20034;-62
2022/12/11 11:21:53;;;;;;;2.42;0.75;;;;;;;6.51;34.22;96927.09;4996235;28;20041;-61
2022/12/11 11:24:40;;;;;;;1.85;0.70;;;;;;;6.42;33.09;96928.06;4996950;28;20076;-62
2022/12/11 11:27:28;;;;;;;1.48;0.57;;;;;;;6.42;32.40;96922.09;5009289;28;20033;-64
2022/12/11 11:29:56;;;;;;;2.55;0.85;;;;;;;6.40;29.45;96929.19;4997827;28;20033;-61
2022/12/11 11:32:27;;;;;;;2.40;0.80;;;;;;;6.46;30.21;96925.97;5013046;28;20029;-63
2022/12/11 11:34:53;;;;;;;1.73;0.57;;;;;;;6.53;29.54;96919.19;5011790;28;20134;-63
2022/12/11 11:37:25;;;;;;;2.42;0.80;;;;;;;6.32;33.51;96884.34;4993890;28;20045;-64
2022/12/11 11:39:54;;;;;;;2.42;0.80;;;;;;;6.21;31.05;96879.50;4995955;28;20022;-63
2022/12/11 11:42:26;;;;;;;2.17;0.70;;;;;;;6.46;28.74;96923.38;4996025;28;20137;-63
2022/12/11 11:45:02;;;;;;;2.13;0.70;;;;;;;6.50;26.95;96911.81;5011681;28;20034;-64
2022/12/11 11:47:36;;;;;;;1.50;0.52;;;;;;;6.49;28.62;96912.75;5013117;28;20042;-63
2022/12/11 11:50:11;;;;;;;2.63;0.80;;;;;;;6.56;31.10;96931.00;4978918;28;20030;-63
2022/12/11 11:52:41;;;;;;;2.15;0.80;;;;;;;6.48;28.76;96921.44;4993510;28;20068;-63
2022/12/11 11:55:41;;;;;;;1.73;0.60;;;;;;;6.51;30.17;96908.22;4995827;28;20030;-64
2022/12/11 11:58:13;;;;;;;2.38;0.80;;;;;;;6.54;30.14;96906.13;4980634;28;20026;-61
2022/12/11 12:00:39;;;;;;;2.00;0.70;;;;;;;6.60;28.70;96903.88;4995290;28;20038;-64